Time;durP1;ratioP1;P1;durP2;ratioP2;P2;SDS_P1;SDS_P2;PMS_P1;PMS_P2;Temp;Humidity;BMP_temperature;BMP_pressure;BME280_temperature;BME280_humidity;BME280_pressure;Samples;Min_cycle;Max_cycle;Signal;HPM_P1;HPM_P2
2024/01/03 00:01:03;;;;;;;24.37;14.30;;;;;;;7.51;66.52;98662.94;4451709;32;20172;-73
2024/01/03 00:03:33;;;;;;;15.65;13.13;;;;;;;7.43;66.95;98660.88;4451891;32;20132;-73
2024/01/03 00:06:06;;;;;;;18.87;14.60;;;;;;;7.35;67.29;98663.25;4452257;32;20179;-74
2024/01/03 00:08:38;;;;;;;20.50;14.35;;;;;;;7.21;67.80;98650.31;4451952;32;20164;-74
2024/01/03 00:11:08;;;;;;;20.70;13.25;;;;;;;7.53;66.67;98653.97;4451984;32;20176;-74
2024/01/03 00:14:10;;;;;;;20.92;13.88;;;;;;;7.44;67.03;98657.28;4451784;32;20194;-74
2024/01/03 00:16:40;;;;;;;18.02;13.18;;;;;;;7.33;67.54;98639.69;4444274;32;20160;-74
2024/01/03 00:19:16;;;;;;;17.83;12.50;;;;;;;7.43;67.13;98638.97;4452073;32;20179;-73
2024/01/03 00:21:47;;;;;;;18.85;13.10;;;;;;;7.59;66.74;98634.19;4451811;32;20167;-73
2024/01/03 00:24:19;;;;;;;18.15;14.48;;;;;;;7.76;66.04;98627.59;4452115;32;20168;-74
2024/01/03 00:26:52;;;;;;;20.90;14.35;;;;;;;7.59;66.49;98623.66;4451376;32;20504;-74
2024/01/03 00:29:55;;;;;;;17.52;13.45;;;;;;;7.68;66.33;98633.50;4451656;32;20160;-74
2024/01/03 00:32:25;;;;;;;15.98;12.90;;;;;;;7.74;66.16;98640.91;4451740;32;20152;-74
2024/01/03 00:34:55;;;;;;;19.45;12.37;;;;;;;7.74;66.04;98648.00;4451703;32;20175;-73
2024/01/03 00:37:31;;;;;;;19.48;15.63;;;;;;;7.75;65.95;98654.94;4451668;32;20173;-74
2024/01/03 00:40:01;;;;;;;21.45;13.82;;;;;;;7.76;65.99;98660.09;4451970;32;20168;-73
2024/01/03 00:42:32;;;;;;;22.17;17.85;;;;;;;7.82;65.85;98662.25;4451407;32;20176;-73
2024/01/03 00:45:04;;;;;;;21.95;15.13;;;;;;;7.74;66.14;98669.09;4451931;32;20164;-74
2024/01/03 00:47:33;;;;;;;20.83;14.00;;;;;;;7.49;66.91;98667.50;4451575;32;20147;-74
2024/01/03 00:50:06;;;;;;;17.33;15.38;;;;;;;7.69;66.61;98681.78;4450836;32;20152;-73
2024/01/03 00:52:37;;;;;;;19.62;12.15;;;;;;;7.75;66.38;98678.66;4446558;32;20159;-74
2024/01/03 00:55:09;;;;;;;16.55;12.18;;;;;;;7.38;67.65;98678.84;4451462;32;20619;-74
2024/01/03 00:57:39;;;;;;;17.65;12.95;;;;;;;7.67;66.70;98676.63;4451540;32;20167;-73
2024/01/03 01:00:09;;;;;;;16.00;13.02;;;;;;;7.87;66.24;98662.72;4450599;32;20199;-74
2024/01/03 01:02:39;;;;;;;21.10;14.02;;;;;;;7.76;66.69;98648.69;4446568;32;20183;-74
2024/01/03 01:05:09;;;;;;;19.98;13.70;;;;;;;7.65;66.90;98631.09;4451528;32;20192;-74
2024/01/03 01:07:40;;;;;;;17.80;14.02;;;;;;;7.59;67.06;98629.75;4451421;32;20184;-74
2024/01/03 01:10:10;;;;;;;17.73;13.75;;;;;;;7.74;66.71;98642.72;4450253;32;20426;-74
2024/01/03 01:12:39;;;;;;;15.98;12.13;;;;;;;7.57;67.09;98646.66;4446779;32;20139;-74
2024/01/03 01:15:09;;;;;;;19.83;14.25;;;;;;;7.62;67.02;98650.63;4451642;32;20191;-74
2024/01/03 01:17:38;;;;;;;21.08;13.45;;;;;;;7.84;66.40;98665.63;4451252;32;20610;-74
2024/01/03 01:20:08;;;;;;;20.58;15.85;;;;;;;8.08;65.37;98662.03;4449983;32;20160;-73
2024/01/03 01:22:37;;;;;;;19.37;14.10;;;;;;;7.88;65.92;98660.97;4446452;32;20160;-73
2024/01/03 01:25:08;;;;;;;21.10;16.92;;;;;;;7.93;65.88;98663.22;4451356;32;20144;-74
2024/01/03 01:27:38;;;;;;;21.77;15.80;;;;;;;7.87;66.09;98657.44;4451312;32;20148;-74
2024/01/03 01:30:08;;;;;;;20.75;15.65;;;;;;;7.87;66.13;98659.25;4445681;32;20163;-74
2024/01/03 01:32:37;;;;;;;23.15;15.43;;;;;;;7.93;66.01;98652.69;4449384;32;20168;-74
2024/01/03 01:35:07;;;;;;;22.90;14.52;;;;;;;8.02;65.55;98650.16;4451308;32;20155;-74
2024/01/03 01:37:36;;;;;;;21.40;16.17;;;;;;;7.85;66.10;98640.94;4451257;32;20164;-74
2024/01/03 01:40:06;;;;;;;18.15;14.35;;;;;;;7.90;66.12;98643.19;4451476;32;20156;-73
2024/01/03 01:42:37;;;;;;;21.20;15.00;;;;;;;7.87;66.28;98632.88;4451176;32;20532;-74
2024/01/03 01:45:06;;;;;;;19.50;13.32;;;;;;;7.95;66.04;98627.84;4447036;32;20194;-74
2024/01/03 01:47:36;;;;;;;17.42;12.35;;;;;;;8.14;65.21;98624.59;4435680;32;20184;-74
2024/01/03 01:50:11;;;;;;;16.02;12.15;;;;;;;7.90;66.02;98630.00;4435833;32;20164;-73
2024/01/03 01:52:42;;;;;;;24.10;12.88;;;;;;;7.99;65.80;98620.53;4435730;32;20227;-74
2024/01/03 01:55:12;;;;;;;15.77;11.02;;;;;;;7.94;65.88;98614.78;4435649;32;20164;-74
2024/01/03 01:57:43;;;;;;;16.77;11.93;;;;;;;7.85;65.92;98619.81;4435748;32;20160;-73
2024/01/03 02:00:16;;;;;;;18.15;11.05;;;;;;;7.93;65.78;98629.78;4435776;32;20140;-74
2024/01/03 02:02:48;;;;;;;14.18;10.43;;;;;;;7.87;66.08;98633.72;4435741;32;20152;-74
2024/01/03 02:05:18;;;;;;;;;;;;;;;7.92;65.95;98632.50;4436068;32;20149;-74
2024/01/03 02:07:47;;;;;;;15.60;11.30;;;;;;;7.85;66.17;98626.91;4435596;32;20060;-74
2024/01/03 02:10:16;;;;;;;15.65;10.48;;;;;;;8.03;65.57;98622.81;4435532;32;20168;-73
2024/01/03 02:12:47;;;;;;;12.15;9.00;;;;;;;7.90;66.00;98619.47;4435549;32;20156;-73
2024/01/03 02:15:17;;;;;;;13.52;10.20;;;;;;;7.95;65.88;98619.09;4435816;32;20144;-74
2024/01/03 02:17:50;;;;;;;21.30;10.97;;;;;;;7.87;66.21;98611.78;4446845;32;20144;-74
2024/01/03 02:20:20;;;;;;;17.23;10.10;;;;;;;7.94;66.04;98623.53;4448587;32;20195;-73
2024/01/03 02:22:50;;;;;;;14.30;10.10;;;;;;;7.98;65.99;98621.50;4447140;32;20151;-74
2024/01/03 02:25:19;;;;;;;14.00;9.95;;;;;;;8.00;65.93;98611.66;4450812;32;20171;-74
2024/01/03 02:27:50;;;;;;;13.40;9.93;;;;;;;7.95;66.31;98601.47;4449404;32;20791;-74
2024/01/03 02:30:19;;;;;;;14.77;9.55;;;;;;;7.78;66.70;98592.25;4447751;32;20192;-74
2024/01/03 02:32:48;;;;;;;16.30;10.20;;;;;;;8.04;66.15;98592.84;4446917;32;20542;-74
2024/01/03 02:35:18;;;;;;;15.30;9.70;;;;;;;7.94;66.54;98589.25;4450737;32;20171;-74
2024/01/03 02:37:47;;;;;;;14.30;9.55;;;;;;;8.10;65.99;98568.59;4450717;32;20179;-74
2024/01/03 02:40:18;;;;;;;14.98;9.35;;;;;;;7.99;66.57;98568.63;4448594;32;20152;-74
2024/01/03 02:42:47;;;;;;;14.27;10.43;;;;;;;8.13;65.98;98581.53;4447193;32;20522;-74
2024/01/03 02:45:16;;;;;;;15.70;10.63;;;;;;;8.05;66.30;98572.56;4450934;32;20183;-74
2024/01/03 02:47:45;;;;;;;13.80;8.13;;;;;;;7.57;68.13;98557.03;4450411;32;20461;-74
2024/01/03 02:50:15;;;;;;;13.25;8.98;;;;;;;7.50;68.89;98567.22;4448669;32;20164;-74
2024/01/03 02:52:45;;;;;;;13.30;8.82;;;;;;;7.88;67.59;98569.50;4446415;32;20156;-74
2024/01/03 02:55:14;;;;;;;11.18;8.73;;;;;;;7.82;67.79;98577.03;4450384;32;20164;-74
2024/01/03 02:57:44;;;;;;;12.23;8.38;;;;;;;7.81;67.98;98575.37;4450744;32;20231;-74
2024/01/03 03:00:13;;;;;;;13.32;8.68;;;;;;;8.13;67.15;98562.25;4449015;32;20163;-73
2024/01/03 03:02:42;;;;;;;12.88;8.30;;;;;;;7.93;67.94;98552.47;4446170;32;20175;-74
2024/01/03 03:05:12;;;;;;;12.73;8.65;;;;;;;8.02;67.63;98554.34;4450360;32;20188;-74
2024/01/03 03:07:43;;;;;;;14.20;8.70;;;;;;;8.13;67.23;98563.09;4450363;32;20164;-73
2024/01/03 03:10:15;;;;;;;15.10;8.70;;;;;;;7.95;68.09;98563.72;4448676;32;20731;-74
2024/01/03 03:12:45;;;;;;;12.27;7.78;;;;;;;7.66;69.47;98552.84;4446044;32;20460;-74
2024/01/03 03:15:14;;;;;;;12.98;7.87;;;;;;;7.47;70.28;98550.81;4450963;32;20148;-74
2024/01/03 03:17:44;;;;;;;12.98;7.82;;;;;;;7.76;69.16;98566.97;4449938;32;20164;-74
2024/01/03 03:20:13;;;;;;;10.95;7.47;;;;;;;7.85;68.81;98575.00;4448376;32;20555;-73
2024/01/03 03:22:42;;;;;;;16.87;9.45;;;;;;;7.84;68.95;98578.59;4445743;32;20183;-74
2024/01/03 03:25:11;;;;;;;12.25;8.55;;;;;;;7.73;69.58;98573.34;4448683;32;20163;-74
2024/01/03 03:27:40;;;;;;;11.82;6.70;;;;;;;7.59;70.27;98560.37;4449957;32;20145;-73
2024/01/03 03:30:12;;;;;;;11.35;7.15;;;;;;;7.70;69.71;98556.91;4449137;32;20128;-74
2024/01/03 03:32:44;;;;;;;;;;;;;;;7.53;70.76;98559.06;4445766;32;20175;-74
2024/01/03 03:35:14;;;;;;;10.70;7.30;;;;;;;7.88;69.46;98556.31;4449891;32;20031;-74
2024/01/03 03:37:44;;;;;;;12.50;8.90;;;;;;;7.80;69.72;98560.47;4449824;32;20267;-74
2024/01/03 03:40:13;;;;;;;15.15;9.85;;;;;;;7.98;69.30;98556.41;4448201;32;20151;-74
2024/01/03 03:42:46;;;;;;;11.00;7.87;;;;;;;7.89;69.42;98559.78;4447019;32;20195;-74
2024/01/03 03:45:16;;;;;;;12.70;7.70;;;;;;;8.07;68.90;98560.91;4452404;32;20434;-74
2024/01/03 03:47:46;;;;;;;14.63;8.15;;;;;;;8.19;68.46;98572.28;4451913;32;20159;-74
2024/01/03 03:50:16;;;;;;;9.82;7.75;;;;;;;8.22;68.36;98568.56;4449957;32;20167;-74
2024/01/03 03:52:45;;;;;;;12.02;7.97;;;;;;;8.21;68.39;98561.63;4447997;32;20168;-74
2024/01/03 03:55:16;;;;;;;10.48;7.75;;;;;;;8.46;67.78;98569.25;4451961;32;20162;-74
2024/01/03 03:57:45;;;;;;;10.68;7.62;;;;;;;8.37;67.94;98581.41;4451973;32;20128;-74
2024/01/03 04:00:22;;;;;;;11.23;7.25;;;;;;;8.14;68.74;98582.38;4449843;32;20536;-74
2024/01/03 04:02:52;;;;;;;11.60;7.03;;;;;;;8.31;68.33;98583.66;4448266;32;20211;-74
2024/01/03 04:05:21;;;;;;;10.68;7.15;;;;;;;8.22;68.60;98587.88;4451858;32;20182;-74
2024/01/03 04:07:51;;;;;;;10.27;6.80;;;;;;;8.40;67.96;98592.69;4452024;32;20180;-74
2024/01/03 04:10:20;;;;;;;11.27;6.40;;;;;;;8.36;68.20;98597.34;4449509;32;20157;-74
2024/01/03 04:12:49;;;;;;;11.95;7.35;;;;;;;8.34;68.37;98600.09;4444287;32;20152;-74
2024/01/03 04:15:19;;;;;;;9.93;6.72;;;;;;;8.54;67.75;98598.50;4451681;32;20159;-74
2024/01/03 04:17:50;;;;;;;14.32;8.15;;;;;;;8.45;67.83;98598.41;4451469;32;20778;-74
2024/01/03 04:20:20;;;;;;;12.70;6.93;;;;;;;8.32;68.51;98596.75;4442640;32;20171;-73
2024/01/03 04:22:49;;;;;;;19.52;11.75;;;;;;;8.18;69.27;98596.16;4448189;32;20164;-74
2024/01/03 04:25:19;;;;;;;57.97;34.10;;;;;;;8.45;68.54;98590.50;4451777;32;20159;-74
2024/01/03 04:27:48;;;;;;;38.03;22.77;;;;;;;8.49;68.62;98591.94;4451707;32;20160;-74
2024/01/03 04:30:20;;;;;;;40.25;25.62;;;;;;;8.35;69.14;98591.22;4452092;32;20444;-74
2024/01/03 04:32:50;;;;;;;42.03;26.35;;;;;;;8.29;69.14;98594.34;4451628;32;20156;-74
2024/01/03 04:35:20;;;;;;;30.85;18.17;;;;;;;8.11;69.97;98593.16;4438470;32;20153;-74
2024/01/03 04:37:49;;;;;;;25.67;15.07;;;;;;;8.34;69.33;98596.59;4436206;32;20156;-74
2024/01/03 04:40:18;;;;;;;19.70;11.32;;;;;;;8.39;69.07;98591.81;4436058;32;20255;-74
2024/01/03 04:42:47;;;;;;;18.37;9.93;;;;;;;8.44;68.78;98579.09;4436238;32;20156;-74
2024/01/03 04:45:17;;;;;;;15.88;9.60;;;;;;;8.49;68.58;98576.91;4436404;32;20179;-74
2024/01/03 04:47:46;;;;;;;19.45;12.00;;;;;;;8.60;68.06;98563.69;4435970;32;20528;-74
2024/01/03 04:50:17;;;;;;;20.33;9.63;;;;;;;8.47;68.30;98570.91;4442549;32;20156;-74
2024/01/03 04:52:47;;;;;;;27.48;11.88;;;;;;;8.29;69.11;98567.13;4447107;32;20172;-74
2024/01/03 04:55:16;;;;;;;17.33;10.20;;;;;;;8.18;69.56;98564.50;4450005;32;20183;-74
2024/01/03 04:57:45;;;;;;;16.37;8.57;;;;;;;8.36;69.11;98565.66;4451483;32;20175;-74
2024/01/03 05:00:15;;;;;;;14.35;9.32;;;;;;;8.21;69.43;98556.34;4448687;32;20438;-74
2024/01/03 05:02:44;;;;;;;21.25;9.45;;;;;;;8.19;69.54;98574.09;4447412;32;20152;-74
2024/01/03 05:05:13;;;;;;;16.12;8.77;;;;;;;8.32;69.10;98573.00;4451376;32;20536;-74
2024/01/03 05:07:47;;;;;;;13.65;8.93;;;;;;;8.71;67.71;98564.59;4451427;32;20159;-74
2024/01/03 05:10:20;;;;;;;15.73;9.27;;;;;;;8.48;68.28;98563.88;4449126;32;20168;-73
2024/01/03 05:12:49;;;;;;;13.40;9.23;;;;;;;8.52;68.33;98554.72;4447900;32;20160;-74
2024/01/03 05:15:19;;;;;;;17.05;9.80;;;;;;;8.71;67.37;98569.88;4451624;32;20148;-74
2024/01/03 05:17:48;;;;;;;15.65;9.98;;;;;;;8.36;68.71;98584.97;4451056;32;20147;-74
2024/01/03 05:20:17;;;;;;;10.98;8.27;;;;;;;8.25;69.08;98577.09;4449200;32;20175;-74
2024/01/03 05:22:48;;;;;;;16.27;10.48;;;;;;;8.31;69.03;98579.22;4447838;32;20160;-74
2024/01/03 05:25:17;;;;;;;15.20;8.60;;;;;;;8.42;68.53;98569.63;4451278;32;20179;-74
2024/01/03 05:27:47;;;;;;;13.10;8.85;;;;;;;8.44;68.77;98573.00;4451361;32;20507;-74
2024/01/03 05:30:16;;;;;;;18.35;11.35;;;;;;;8.27;69.23;98566.41;4449810;32;20213;-74
2024/01/03 05:32:45;;;;;;;16.12;10.98;;;;;;;8.36;69.12;98566.50;4447537;32;20179;-74
2024/01/03 05:35:15;;;;;;;17.87;14.82;;;;;;;8.34;69.13;98572.84;4449939;32;20171;-74
2024/01/03 05:37:44;;;;;;;21.12;14.77;;;;;;;8.48;68.66;98569.97;4451254;32;20179;-74
2024/01/03 05:40:18;;;;;;;20.73;17.62;;;;;;;8.43;69.01;98579.22;4449586;32;20183;-73
2024/01/03 05:42:47;;;;;;;20.27;18.02;;;;;;;8.49;68.61;98568.16;4447676;32;20546;-74
2024/01/03 05:45:16;;;;;;;22.73;19.75;;;;;;;8.36;69.20;98576.22;4451522;32;20187;-74
2024/01/03 05:47:45;;;;;;;21.10;18.87;;;;;;;8.29;69.31;98575.87;4451272;32;20172;-74
2024/01/03 05:50:18;;;;;;;17.10;13.55;;;;;;;8.28;69.47;98574.19;4448857;32;20211;-74
2024/01/03 05:52:48;;;;;;;19.83;14.07;;;;;;;8.13;70.12;98578.91;4447370;32;20175;-74
2024/01/03 05:55:18;;;;;;;12.85;11.55;;;;;;;8.20;70.45;98581.91;4451053;32;20164;-74
2024/01/03 05:57:48;;;;;;;14.48;12.35;;;;;;;8.25;70.13;98587.62;4451156;32;20167;-74
2024/01/03 06:00:18;;;;;;;7.60;6.28;;;;;;;8.49;69.74;98584.00;4449244;32;20140;-74
2024/01/03 06:02:48;;;;;;;8.30;4.82;;;;;;;8.25;71.11;98589.44;4446879;32;20152;-74
2024/01/03 06:05:18;;;;;;;7.97;5.10;;;;;;;8.53;70.65;98598.63;4450731;32;20144;-74
2024/01/03 06:07:48;;;;;;;6.15;4.25;;;;;;;8.54;70.68;98597.66;4450931;32;20430;-74
2024/01/03 06:10:18;;;;;;;4.03;3.17;;;;;;;8.28;72.12;98597.13;4449019;32;20532;-74
2024/01/03 06:12:48;;;;;;;7.68;3.87;;;;;;;8.47;71.75;98597.31;4447383;32;20160;-74
2024/01/03 06:15:17;;;;;;;6.15;3.45;;;;;;;8.80;70.75;98593.72;4451271;32;20176;-74
2024/01/03 06:17:46;;;;;;;7.15;3.20;;;;;;;8.83;70.53;98592.66;4450871;32;20155;-74
2024/01/03 06:20:15;;;;;;;7.72;3.03;;;;;;;8.76;70.89;98588.84;4448953;32;20394;-74
2024/01/03 06:22:46;;;;;;;7.10;4.87;;;;;;;8.91;70.40;98589.34;4447252;32;20443;-74
2024/01/03 06:25:15;;;;;;;6.07;3.62;;;;;;;8.74;70.74;98596.84;4450824;32;20440;-74
2024/01/03 06:27:45;;;;;;;6.18;4.30;;;;;;;8.95;70.10;98593.41;4450791;32;20144;-74
2024/01/03 06:30:15;;;;;;;5.57;3.30;;;;;;;8.90;70.19;98600.88;4449399;32;20164;-74
2024/01/03 06:32:45;;;;;;;9.48;3.67;;;;;;;8.73;70.54;98618.97;4446562;32;20179;-74
2024/01/03 06:35:14;;;;;;;5.35;4.57;;;;;;;9.11;69.32;98615.78;4450677;32;20183;-74
2024/01/03 06:37:43;;;;;;;7.22;6.43;;;;;;;8.94;69.89;98611.06;4450653;32;20178;-74
2024/01/03 06:40:12;;;;;;;8.35;6.87;;;;;;;9.02;69.68;98615.72;4449382;32;20387;-74
2024/01/03 06:42:41;;;;;;;7.03;5.32;;;;;;;8.92;69.93;98617.47;4446184;32;20426;-74
2024/01/03 06:45:12;;;;;;;5.05;3.25;;;;;;;8.90;69.80;98609.62;4450899;32;20184;-74
2024/01/03 06:47:42;;;;;;;6.37;2.95;;;;;;;9.01;69.51;98603.47;4450592;32;20154;-74
2024/01/03 06:50:13;;;;;;;5.00;3.17;;;;;;;8.95;69.58;98606.59;4449068;32;20148;-74
2024/01/03 06:52:42;;;;;;;4.25;3.05;;;;;;;8.97;69.51;98602.88;4429403;32;20192;-74
2024/01/03 06:55:12;;;;;;;5.93;3.80;;;;;;;9.05;69.23;98611.00;4449227;32;20182;-74
2024/01/03 06:57:42;;;;;;;5.57;4.10;;;;;;;9.16;68.69;98611.94;4450428;32;20155;-74
2024/01/03 07:00:14;;;;;;;9.23;4.43;;;;;;;9.09;68.71;98614.22;4449317;32;20521;-74
2024/01/03 07:02:50;;;;;;;4.80;3.22;;;;;;;9.06;68.57;98610.03;4446375;32;20144;-74
2024/01/03 07:05:19;;;;;;;8.07;3.15;;;;;;;8.98;69.02;98615.13;4450221;32;20545;-74
2024/01/03 07:07:51;;;;;;;6.32;3.95;;;;;;;9.09;68.65;98617.72;4450225;32;20156;-74
2024/01/03 07:10:21;;;;;;;4.70;3.50;;;;;;;8.98;68.74;98620.41;4448115;32;20173;-74
2024/01/03 07:12:50;;;;;;;7.47;3.53;;;;;;;8.90;69.41;98617.56;4446805;32;20425;-74
2024/01/03 07:15:21;;;;;;;4.12;2.35;;;;;;;8.75;70.30;98619.69;4450531;32;20169;-74
2024/01/03 07:17:50;;;;;;;3.60;2.28;;;;;;;8.68;70.62;98615.03;4451651;32;20443;-74
2024/01/03 07:20:21;;;;;;;2.87;2.33;;;;;;;8.78;70.28;98603.56;4449862;32;20192;-74
2024/01/03 07:22:50;;;;;;;3.12;2.03;;;;;;;8.69;70.62;98604.34;4448761;32;20554;-74
2024/01/03 07:25:19;;;;;;;5.47;2.47;;;;;;;8.77;70.63;98598.41;4452033;32;20767;-74
2024/01/03 07:27:48;;;;;;;3.08;2.37;;;;;;;8.78;70.66;98603.56;4452180;32;20168;-74
2024/01/03 07:30:17;;;;;;;5.95;2.67;;;;;;;8.58;71.18;98604.38;4450423;32;20152;-74
2024/01/03 07:32:48;;;;;;;4.75;2.47;;;;;;;8.87;70.62;98604.63;4448475;32;20159;-74
2024/01/03 07:35:17;;;;;;;4.25;2.08;;;;;;;9.05;69.96;98618.94;4452139;32;20160;-74
2024/01/03 07:37:46;;;;;;;4.70;2.28;;;;;;;8.75;71.07;98622.31;4451962;32;20190;-74
2024/01/03 07:40:15;;;;;;;5.30;3.00;;;;;;;9.01;70.29;98620.16;4449023;32;20183;-74
2024/01/03 07:42:44;;;;;;;2.87;2.20;;;;;;;9.01;70.29;98614.87;4447990;32;20156;-74
2024/01/03 07:45:13;;;;;;;3.37;2.30;;;;;;;9.22;69.72;98611.41;4452627;32;20132;-74
2024/01/03 07:47:50;;;;;;;3.20;1.90;;;;;;;9.33;69.43;98614.81;4451865;32;20183;-74
2024/01/03 07:50:19;;;;;;;2.30;1.90;;;;;;;9.41;69.48;98611.50;4449687;32;20810;-74
2024/01/03 07:52:49;;;;;;;2.67;2.12;;;;;;;9.43;69.65;98621.97;4448358;32;20163;-74
2024/01/03 07:55:18;;;;;;;4.65;2.67;;;;;;;9.65;69.43;98615.69;4429577;32;20152;-74
2024/01/03 07:57:47;;;;;;;3.62;2.97;;;;;;;10.30;68.18;98611.78;4436763;32;20157;-74
2024/01/03 08:00:17;;;;;;;3.17;2.53;;;;;;;10.84;66.65;98605.13;4434766;32;20175;-74
2024/01/03 08:02:47;;;;;;;3.17;2.28;;;;;;;11.21;65.86;98607.91;4432765;32;20161;-74
2024/01/03 08:05:17;;;;;;;2.97;2.22;;;;;;;12.05;63.66;98607.97;4436478;32;20207;-74
2024/01/03 08:07:46;;;;;;;4.53;3.12;;;;;;;12.63;60.65;98609.44;4436360;32;20187;-74
2024/01/03 08:10:16;;;;;;;5.72;3.08;;;;;;;12.64;60.03;98607.63;4436385;32;20160;-74
2024/01/03 08:12:45;;;;;;;3.83;2.65;;;;;;;12.68;59.67;98611.66;4436466;32;20152;-74
2024/01/03 08:15:14;;;;;;;4.40;2.58;;;;;;;12.64;59.09;98619.09;4436631;32;20136;-74
2024/01/03 08:17:44;;;;;;;6.43;3.83;;;;;;;12.25;60.27;98626.44;4436344;32;20512;-74
2024/01/03 08:20:13;;;;;;;5.90;3.53;;;;;;;12.15;60.87;98634.44;4436339;32;20132;-74
2024/01/03 08:22:44;;;;;;;5.45;3.55;;;;;;;12.20;60.25;98637.53;4436197;32;20167;-74
2024/01/03 08:25:13;;;;;;;9.48;3.55;;;;;;;11.83;60.93;98640.19;4444498;32;20160;-74
2024/01/03 08:27:42;;;;;;;6.37;4.07;;;;;;;11.81;61.64;98627.03;4450884;32;21243;-74
2024/01/03 08:30:12;;;;;;;4.37;2.80;;;;;;;12.04;61.62;98637.31;4450340;32;20143;-74
2024/01/03 08:32:42;;;;;;;5.40;3.78;;;;;;;11.98;61.14;98645.84;4447302;32;20152;-74
2024/01/03 08:35:11;;;;;;;5.03;3.17;;;;;;;11.98;61.23;98638.72;4451721;32;20164;-74
2024/01/03 08:37:40;;;;;;;4.70;2.62;;;;;;;11.94;61.04;98634.69;4451676;32;20152;-74
2024/01/03 08:40:12;;;;;;;6.10;2.22;;;;;;;11.87;61.57;98635.41;4450441;32;20179;-74
2024/01/03 08:42:41;;;;;;;3.87;2.47;;;;;;;11.64;61.93;98638.41;4447133;32;20172;-74
2024/01/03 08:45:10;;;;;;;4.15;2.87;;;;;;;11.51;62.38;98646.66;4452238;32;20424;-74
2024/01/03 08:47:39;;;;;;;3.15;2.33;;;;;;;11.58;62.22;98653.06;4451620;32;20163;-74
2024/01/03 08:50:10;;;;;;;3.28;2.55;;;;;;;11.56;62.26;98644.44;4450527;32;20524;-74
2024/01/03 08:52:39;;;;;;;5.22;2.58;;;;;;;11.61;62.22;98648.47;4446932;32;20303;-74
2024/01/03 08:55:09;;;;;;;3.15;2.33;;;;;;;11.74;61.89;98636.53;4451568;32;20167;-74
2024/01/03 08:57:48;;;;;;;4.37;2.30;;;;;;;11.55;62.19;98663.12;4451760;32;20135;-74
2024/01/03 09:00:18;;;;;;;3.55;2.53;;;;;;;11.35;62.88;98637.63;4449653;32;20144;-74
2024/01/03 09:02:57;;;;;;;2.62;2.22;;;;;;;11.16;63.68;98644.59;4431245;32;20172;-74
2024/01/03 09:05:26;;;;;;;2.53;2.00;;;;;;;11.01;64.07;98651.31;4445552;32;20152;-74
2024/01/03 09:07:56;;;;;;;5.70;4.10;;;;;;;10.82;64.76;98652.16;4451383;32;20183;-74
2024/01/03 09:10:30;;;;;;;4.18;2.97;;;;;;;10.86;64.78;98655.38;4448021;32;20176;-74
2024/01/03 09:13:01;;;;;;;6.32;3.10;;;;;;;10.95;64.92;98665.97;4449048;32;20175;-74
2024/01/03 09:15:29;;;;;;;5.07;3.37;;;;;;;11.16;64.86;98652.56;4451494;32;20144;-74
2024/01/03 09:18:05;;;;;;;6.22;3.10;;;;;;;11.42;64.08;98660.78;4451864;32;20139;-74
2024/01/03 09:20:34;;;;;;;5.87;3.30;;;;;;;11.30;63.66;98653.97;4447678;32;20782;-74
2024/01/03 09:23:04;;;;;;;4.28;2.75;;;;;;;11.17;63.94;98648.12;4449381;32;20152;-74
2024/01/03 09:25:34;;;;;;;3.70;2.55;;;;;;;11.31;63.66;98653.81;4451365;32;20156;-74
2024/01/03 09:28:05;;;;;;;5.72;3.62;;;;;;;11.43;63.52;98651.00;4451334;32;20164;-74
2024/01/03 09:30:34;;;;;;;4.67;3.23;;;;;;;11.68;62.61;98646.88;4447426;32;20180;-74
2024/01/03 09:33:04;;;;;;;3.37;2.75;;;;;;;11.50;63.16;98637.03;4449673;32;20152;-74
2024/01/03 09:35:33;;;;;;;3.92;2.78;;;;;;;11.57;63.12;98635.47;4451283;32;20160;-74
2024/01/03 09:38:05;;;;;;;;;;;;;;;11.58;62.88;98647.75;4451594;32;20152;-74
2024/01/03 09:40:35;;;;;;;4.32;2.70;;;;;;;11.61;62.40;98646.66;4446724;32;20052;-74
2024/01/03 09:43:07;;;;;;;4.32;2.83;;;;;;;12.03;61.93;98654.22;4449315;32;20239;-74
2024/01/03 09:45:37;;;;;;;3.42;2.47;;;;;;;12.55;60.15;98657.16;4451281;32;20135;-74
2024/01/03 09:48:12;;;;;;;3.25;1.90;;;;;;;12.61;59.95;98655.75;4451535;32;20156;-74
2024/01/03 09:50:48;;;;;;;2.75;2.30;;;;;;;13.63;58.02;98642.06;4445892;32;20175;-74
2024/01/03 09:53:19;;;;;;;3.90;2.25;;;;;;;14.33;55.23;98647.22;4450717;32;20183;-74
2024/01/03 09:55:49;;;;;;;3.15;2.10;;;;;;;15.44;53.60;98648.62;4451088;32;20148;-74
2024/01/03 09:58:24;;;;;;;3.08;1.70;;;;;;;16.63;49.63;98645.13;4451170;32;20195;-74
2024/01/03 10:00:53;;;;;;;3.53;2.17;;;;;;;17.60;47.06;98637.41;4445270;32;20164;-74
2024/01/03 10:03:23;;;;;;;5.68;2.67;;;;;;;18.18;45.69;98625.09;4451043;32;20462;-74
2024/01/03 10:06:05;;;;;;;7.30;3.53;;;;;;;18.65;43.29;98631.06;4451459;32;20152;-74
2024/01/03 10:08:35;;;;;;;4.62;3.17;;;;;;;19.04;42.29;98630.66;4450956;32;20177;-74
2024/01/03 10:11:19;;;;;;;9.15;5.47;;;;;;;19.40;41.59;98630.59;4444617;32;20436;-74
2024/01/03 10:13:51;;;;;;;11.05;6.15;;;;;;;18.70;42.62;98639.38;4451075;32;20183;-74
2024/01/03 10:16:24;;;;;;;9.55;6.62;;;;;;;19.20;41.00;98640.31;4451194;32;20172;-74
2024/01/03 10:19:10;;;;;;;10.60;6.12;;;;;;;19.28;41.68;98642.03;4451031;32;20156;-74
2024/01/03 10:21:47;;;;;;;9.80;5.60;;;;;;;19.29;41.42;98644.53;4444610;32;20195;-74
2024/01/03 10:24:17;;;;;;;10.15;5.65;;;;;;;19.10;41.45;98645.19;4451222;32;20156;-74
2024/01/03 10:26:46;;;;;;;5.18;3.58;;;;;;;18.30;43.32;98646.91;4450783;32;20431;-74
2024/01/03 10:29:18;;;;;;;3.47;2.58;;;;;;;18.78;42.61;98631.22;4450806;32;20179;-74
2024/01/03 10:31:48;;;;;;;3.73;2.77;;;;;;;18.95;41.97;98637.19;4444564;32;20177;-74
2024/01/03 10:34:21;;;;;;;4.25;2.05;;;;;;;19.23;41.89;98634.56;4450793;32;20714;-74
2024/01/03 10:36:56;;;;;;;3.42;2.20;;;;;;;18.79;42.11;98632.06;4450738;32;20156;-74
2024/01/03 10:39:26;;;;;;;4.22;2.37;;;;;;;19.22;41.22;98630.22;4450824;32;20606;-74
2024/01/03 10:41:56;;;;;;;2.80;2.35;;;;;;;19.53;40.89;98629.87;4444665;32;20448;-74
2024/01/03 10:44:32;;;;;;;10.18;3.87;;;;;;;19.37;41.04;98628.28;4450637;32;20171;-74
2024/01/03 10:47:01;;;;;;;12.95;7.35;;;;;;;19.74;40.27;98620.94;4450525;32;20151;-74
2024/01/03 10:49:33;;;;;;;8.95;6.32;;;;;;;19.35;40.35;98610.69;4450524;32;20476;-74
2024/01/03 10:52:07;;;;;;;8.65;3.83;;;;;;;18.70;42.53;98617.91;4445042;32;20164;-74
2024/01/03 10:54:42;;;;;;;4.32;2.40;;;;;;;19.11;41.39;98609.25;4452411;32;20148;-74
2024/01/03 10:57:12;;;;;;;5.57;2.62;;;;;;;18.98;42.00;98617.19;4452703;32;20190;-74
2024/01/03 10:59:53;;;;;;;3.17;2.17;;;;;;;18.98;41.64;98609.97;4452384;32;20160;-74
2024/01/03 11:02:30;;;;;;;7.10;2.75;;;;;;;18.67;42.94;98603.00;4445902;32;20721;-74
2024/01/03 11:05:05;;;;;;;4.72;3.10;;;;;;;18.53;42.64;98609.25;4452422;32;20168;-74
2024/01/03 11:07:39;;;;;;;6.03;2.08;;;;;;;18.54;43.43;98612.75;4452331;32;20496;-74
2024/01/03 11:10:09;;;;;;;9.48;4.68;;;;;;;18.77;43.02;98605.41;4451244;32;20425;-74
2024/01/03 11:12:38;;;;;;;3.25;2.03;;;;;;;18.05;44.17;98603.47;4447432;32;20782;-74
2024/01/03 11:15:24;;;;;;;5.40;2.22;;;;;;;17.80;44.16;98594.06;4452668;32;20444;-74
2024/01/03 11:18:06;;;;;;;4.82;2.78;;;;;;;17.41;44.98;98601.25;4451839;32;20152;-75
2024/01/03 11:20:36;;;;;;;3.60;2.58;;;;;;;16.79;46.74;98606.78;4448227;32;20160;-74
2024/01/03 11:23:05;;;;;;;5.20;2.28;;;;;;;16.57;47.00;98597.69;4450294;32;20163;-74
2024/01/03 11:25:49;;;;;;;2.03;1.83;;;;;;;16.46;46.85;98600.75;4452203;32;20179;-74
2024/01/03 11:28:33;;;;;;;3.55;1.85;;;;;;;16.16;47.58;98603.25;4452029;32;20147;-74
2024/01/03 11:31:06;;;;;;;3.22;1.95;;;;;;;15.98;48.47;98595.47;4445710;32;20532;-74
2024/01/03 11:33:39;;;;;;;6.75;2.00;;;;;;;15.64;49.51;98586.84;4452182;32;20172;-74
2024/01/03 11:36:08;;;;;;;1.98;1.60;;;;;;;15.16;50.77;98594.75;4452690;32;20156;-74
2024/01/03 11:38:41;;;;;;;4.15;3.22;;;;;;;15.27;50.82;98600.75;4452164;32;20163;-74
2024/01/03 11:41:15;;;;;;;5.57;3.15;;;;;;;14.82;52.13;98613.59;4445732;32;20613;-74
2024/01/03 11:43:44;;;;;;;15.73;6.70;;;;;;;14.72;52.28;98615.56;4452039;32;20528;-74
2024/01/03 11:46:15;;;;;;;8.43;5.20;;;;;;;14.93;51.76;98618.59;4451965;32;20168;-74
2024/01/03 11:48:46;;;;;;;10.73;5.27;;;;;;;14.88;51.84;98604.06;4452040;32;20160;-74
2024/01/03 11:51:24;;;;;;;6.62;4.03;;;;;;;14.52;53.01;98599.03;4446020;32;20181;-74